Time;durP1;ratioP1;P1;durP2;ratioP2;P2;SDS_P1;SDS_P2;PMS_P1;PMS_P2;Temp;Humidity;BMP_temperature;BMP_pressure;BME280_temperature;BME280_humidity;BME280_pressure;Samples;Min_cycle;Max_cycle;Signal;HPM_P1;HPM_P2
2021/11/19 00:01:25;;;;;;;19.98;16.45;;;;;;;11.69;54.67;99890.66;1797462;78;21049;-64
2021/11/19 00:03:52;;;;;;;23.50;17.30;;;;;;;11.68;54.62;99887.66;1795817;79;20996;-64
2021/11/19 00:06:19;;;;;;;21.60;16.97;;;;;;;11.66;54.58;99888.33;1800062;79;21037;-64
2021/11/19 00:08:47;;;;;;;20.95;16.37;;;;;;;11.67;54.56;99887.34;1810056;79;21137;-64
2021/11/19 00:11:20;;;;;;;21.60;16.42;;;;;;;11.64;54.53;99885.84;1802318;79;20991;-64
2021/11/19 00:13:47;;;;;;;20.97;16.55;;;;;;;11.63;54.50;99878.87;1809581;78;21048;-64
2021/11/19 00:16:14;;;;;;;20.43;16.25;;;;;;;11.64;54.46;99873.86;1809292;78;21017;-64
2021/11/19 00:18:41;;;;;;;19.92;16.27;;;;;;;11.63;54.44;99878.02;1792152;78;21017;-64
2021/11/19 00:21:08;;;;;;;19.95;15.50;;;;;;;11.61;54.41;99874.22;1808065;77;22392;-64
2021/11/19 00:23:35;;;;;;;20.97;17.20;;;;;;;11.61;54.37;99872.89;1812874;78;21578;-64
2021/11/19 00:29:01;;;;;;;21.15;16.82;;;;;;;11.65;54.30;99868.89;1872575;76;28033;-65
2021/11/19 00:31:28;;;;;;;21.55;17.32;;;;;;;11.59;54.27;99861.59;1837454;77;20990;-64
2021/11/19 00:33:58;;;;;;;20.68;16.60;;;;;;;11.59;54.25;99867.73;1841398;77;23322;-65
2021/11/19 00:36:25;;;;;;;19.70;16.73;;;;;;;11.58;54.22;99867.39;1837919;77;21006;-65
2021/11/19 00:38:56;;;;;;;20.48;16.23;;;;;;;11.58;54.20;99871.38;1826498;77;21550;-64
2021/11/19 00:41:22;;;;;;;20.27;16.00;;;;;;;11.57;54.15;99859.09;1844839;77;21462;-64
2021/11/19 00:43:49;;;;;;;20.70;16.20;;;;;;;11.57;54.15;99856.91;1849340;77;21064;-64
2021/11/19 00:46:15;;;;;;;20.60;16.07;;;;;;;11.56;54.12;99854.77;1838768;77;21199;-64
2021/11/19 00:48:42;;;;;;;19.65;16.27;;;;;;;11.56;54.12;99853.94;1781779;79;20958;-65
2021/11/19 00:51:16;;;;;;;20.17;15.65;;;;;;;11.56;54.07;99848.11;1772010;80;21089;-64
2021/11/19 00:53:47;;;;;;;19.05;14.90;;;;;;;11.55;54.03;99838.48;1791370;78;21041;-64
2021/11/19 00:56:17;;;;;;;21.20;16.23;;;;;;;11.54;54.02;99838.14;1759657;80;21057;-65
2021/11/19 00:58:44;;;;;;;19.98;15.48;;;;;;;11.54;54.01;99836.81;1804712;78;21151;-65
2021/11/19 01:01:16;;;;;;;20.27;16.15;;;;;;;11.53;53.96;99837.83;1800306;78;21045;-65
2021/11/19 01:03:43;;;;;;;17.60;14.73;;;;;;;11.52;53.97;99832.16;1817371;78;21029;-65
2021/11/19 01:06:09;;;;;;;18.25;15.05;;;;;;;11.51;53.95;99842.50;1792462;78;21036;-65
2021/11/19 01:08:36;;;;;;;20.40;15.48;;;;;;;11.52;53.95;99834.83;1755891;80;21564;-65
2021/11/19 01:11:05;;;;;;;19.50;15.00;;;;;;;11.52;53.92;99831.34;1755607;80;21195;-64
2021/11/19 01:13:33;;;;;;;20.27;16.00;;;;;;;11.51;53.89;99824.35;1786397;79;21014;-65
2021/11/19 01:16:10;;;;;;;18.25;15.00;;;;;;;11.50;53.89;99821.38;1767408;79;21025;-65
2021/11/19 01:18:45;;;;;;;19.87;15.78;;;;;;;11.51;53.87;99817.70;1783367;79;21525;-65
2021/11/19 01:21:23;;;;;;;16.85;15.05;;;;;;;11.50;53.85;99813.40;1766129;79;21019;-65
2021/11/19 01:23:49;;;;;;;19.52;15.45;;;;;;;11.50;53.82;99808.08;1789230;78;22126;-61
2021/11/19 01:26:24;;;;;;;18.87;16.27;;;;;;;11.49;53.83;99808.59;1775509;79;21030;-61
2021/11/19 01:28:55;;;;;;;19.60;15.65;;;;;;;11.49;53.79;99799.75;1802894;78;21483;-61
2021/11/19 01:31:27;;;;;;;20.17;15.18;;;;;;;11.49;53.77;99805.08;1789661;78;21046;-61
2021/11/19 01:33:56;;;;;;;17.65;15.08;;;;;;;11.49;53.78;99807.73;1775789;80;21644;-60
2021/11/19 01:36:31;;;;;;;17.57;14.43;;;;;;;11.47;53.78;99803.91;1779193;79;21154;-62
2021/11/19 01:39:07;;;;;;;17.98;15.03;;;;;;;11.47;53.77;99801.76;1774503;79;21050;-62
2021/11/19 01:41:52;;;;;;;16.27;13.88;;;;;;;11.48;53.76;99799.44;1788269;79;21549;-63
2021/11/19 01:44:24;;;;;;;17.82;14.78;;;;;;;11.47;53.72;99795.93;1770044;79;21048;-62
2021/11/19 01:46:52;;;;;;;18.23;14.38;;;;;;;11.46;53.70;99796.13;1798345;79;21044;-63
2021/11/19 01:49:20;;;;;;;16.65;14.30;;;;;;;11.46;53.69;99791.62;1770360;79;21209;-62
2021/11/19 01:51:59;;;;;;;18.23;14.80;;;;;;;11.45;53.69;99789.95;1787983;79;21009;-64
2021/11/19 01:54:36;;;;;;;18.57;13.72;;;;;;;11.46;53.68;99790.30;1803841;78;21063;-63
2021/11/19 01:57:24;;;;;;;18.57;14.85;;;;;;;11.45;53.66;99779.83;1770805;78;21052;-62
2021/11/19 02:00:02;;;;;;;17.37;14.58;;;;;;;11.46;53.64;99777.50;1812858;78;21103;-62
2021/11/19 02:02:37;;;;;;;16.17;14.05;;;;;;;11.44;53.64;99774.19;1813014;78;21146;-62
2021/11/19 02:05:22;;;;;;;17.95;14.28;;;;;;;11.43;53.65;99769.86;1796798;78;21064;-62
2021/11/19 02:07:54;;;;;;;16.12;13.55;;;;;;;11.43;53.66;99763.20;1807863;78;21058;-62
2021/11/19 02:10:58;;;;;;;16.67;14.07;;;;;;;11.43;53.61;99765.87;1796454;78;21035;-63
2021/11/19 02:13:39;;;;;;;18.95;14.33;;;;;;;11.41;53.61;99761.56;1783237;78;21041;-61
2021/11/19 02:16:18;;;;;;;15.65;12.75;;;;;;;11.40;53.63;99759.89;1753059;79;21237;-62
2021/11/19 02:19:01;;;;;;;15.38;13.43;;;;;;;11.40;53.62;99753.24;1819143;78;21618;-65
2021/11/19 02:21:45;;;;;;;15.75;13.43;;;;;;;11.40;53.62;99755.08;1771297;79;21004;-64
2021/11/19 02:24:36;;;;;;;14.18;12.47;;;;;;;11.39;53.61;99748.91;1826051;78;21528;-64
2021/11/19 02:27:09;;;;;;;14.90;12.30;;;;;;;11.38;53.60;99750.44;1800678;78;21508;-65
2021/11/19 02:29:40;;;;;;;16.15;12.58;;;;;;;11.38;53.58;99761.90;1777382;79;21722;-64
2021/11/19 02:32:12;;;;;;;15.43;13.03;;;;;;;11.37;53.58;99754.09;1761852;80;21037;-64
2021/11/19 02:34:43;;;;;;;15.00;12.37;;;;;;;11.37;53.57;99749.59;1739342;80;21033;-64
2021/11/19 02:37:15;;;;;;;15.18;13.08;;;;;;;11.37;53.57;99745.59;1746448;80;20986;-66
2021/11/19 02:39:48;;;;;;;14.28;12.63;;;;;;;11.38;53.51;99745.12;1785756;80;21560;-65
2021/11/19 02:42:27;;;;;;;16.12;12.63;;;;;;;11.39;53.49;99744.10;1757430;80;21079;-64
2021/11/19 02:44:56;;;;;;;16.55;12.82;;;;;;;11.38;53.49;99738.47;1769370;78;21040;-64
2021/11/19 02:47:26;;;;;;;16.23;12.70;;;;;;;11.37;53.46;99740.28;1758058;80;21020;-65
2021/11/19 02:49:53;;;;;;;14.60;12.20;;;;;;;11.38;53.45;99748.59;1731828;81;21586;-65
2021/11/19 02:52:31;;;;;;;15.13;12.93;;;;;;;11.38;53.45;99748.59;1760205;80;21060;-65
2021/11/19 02:54:59;;;;;;;14.13;12.07;;;;;;;11.38;53.39;99752.59;1746801;80;21060;-64
2021/11/19 02:57:26;;;;;;;15.05;12.93;;;;;;;11.37;53.38;99755.42;1762254;80;20982;-65
2021/11/19 02:59:54;;;;;;;14.70;12.73;;;;;;;11.37;53.36;99758.89;1753498;80;21081;-64
2021/11/19 03:02:25;;;;;;;13.90;12.40;;;;;;;11.38;53.35;99754.43;1748477;80;21105;-64
2021/11/19 03:04:59;;;;;;;17.10;12.95;;;;;;;11.37;53.33;99752.75;1739531;81;21041;-65
2021/11/19 03:07:27;;;;;;;13.20;11.25;;;;;;;11.37;53.32;99750.09;1751517;80;21127;-66
2021/11/19 03:10:02;;;;;;;13.88;11.18;;;;;;;11.37;53.31;99742.12;1749996;79;21065;-64
2021/11/19 03:12:32;;;;;;;13.88;11.83;;;;;;;11.36;53.29;99732.50;1721420;81;21045;-65
2021/11/19 03:15:00;;;;;;;14.60;11.90;;;;;;;11.36;53.28;99727.17;1750382;80;21060;-65
2021/11/19 03:17:26;;;;;;;13.98;11.12;;;;;;;11.36;53.28;99717.36;1761372;80;21497;-64
2021/11/19 03:19:53;;;;;;;14.87;11.70;;;;;;;11.36;53.25;99715.21;1776190;80;21586;-65
2021/11/19 03:22:21;;;;;;;14.35;12.25;;;;;;;11.36;53.25;99716.54;1741793;79;21100;-64
2021/11/19 03:24:48;;;;;;;12.80;11.08;;;;;;;11.35;53.22;99702.39;1747878;79;21485;-65
2021/11/19 03:27:16;;;;;;;13.03;11.08;;;;;;;11.35;53.22;99698.91;1764884;79;21509;-64
2021/11/19 03:29:45;;;;;;;12.88;11.10;;;;;;;11.35;53.19;99697.58;1770085;79;21080;-64
2021/11/19 03:32:15;;;;;;;12.45;11.08;;;;;;;11.35;53.20;99699.73;1761342;80;21034;-64
2021/11/19 03:34:42;;;;;;;13.53;11.15;;;;;;;11.35;53.18;99701.56;1769975;80;21014;-64
2021/11/19 03:37:08;;;;;;;11.70;10.13;;;;;;;11.36;53.15;99703.23;1762303;80;21109;-61
2021/11/19 03:39:35;;;;;;;13.48;11.28;;;;;;;11.34;53.15;99697.27;1761676;80;21047;-62
2021/11/19 03:42:01;;;;;;;13.58;10.85;;;;;;;11.36;53.15;99703.23;1767621;80;21014;-62
2021/11/19 03:44:34;;;;;;;12.93;10.82;;;;;;;11.36;53.13;99697.41;1776737;80;21120;-61
2021/11/19 03:47:12;;;;;;;12.95;10.82;;;;;;;11.36;53.11;99690.77;1765691;78;21049;-61
2021/11/19 03:49:39;;;;;;;12.53;10.90;;;;;;;11.36;53.09;99691.27;1790149;78;21037;-62
2021/11/19 03:52:11;;;;;;;11.88;9.70;;;;;;;11.35;53.08;99693.08;1784553;79;21017;-62
2021/11/19 03:54:40;;;;;;;13.80;10.40;;;;;;;11.35;53.08;99689.09;1816297;78;20994;-63
2021/11/19 03:57:07;;;;;;;11.22;10.03;;;;;;;11.35;53.07;99680.30;1761110;80;21957;-62
2021/11/19 03:59:33;;;;;;;13.03;10.45;;;;;;;11.34;53.07;99669.34;1777172;78;21029;-62
2021/11/19 04:02:00;;;;;;;12.13;10.40;;;;;;;11.35;53.08;99670.98;1791459;78;21045;-62
2021/11/19 04:04:29;;;;;;;11.43;10.20;;;;;;;11.35;53.06;99672.31;1805859;78;21010;-62
2021/11/19 04:06:58;;;;;;;11.80;9.68;;;;;;;11.34;53.05;99662.19;1802659;78;21024;-62
2021/11/19 04:09:24;;;;;;;11.25;9.90;;;;;;;11.34;53.03;99660.03;1776754;80;21084;-61
2021/11/19 04:11:50;;;;;;;12.00;10.63;;;;;;;11.35;53.00;99660.34;1771704;79;21045;-63
2021/11/19 04:14:17;;;;;;;11.83;10.28;;;;;;;11.35;52.99;99660.34;1795263;79;21006;-61
2021/11/19 04:16:49;;;;;;;11.97;10.15;;;;;;;11.34;53.00;99650.22;1780549;80;21478;-63
2021/11/19 04:19:18;;;;;;;12.03;9.78;;;;;;;11.35;52.97;99642.55;1786503;79;21052;-62
2021/11/19 04:21:46;;;;;;;10.80;9.45;;;;;;;11.35;52.97;99641.73;1770141;80;21158;-61
2021/11/19 04:24:16;;;;;;;11.20;9.95;;;;;;;11.33;52.96;99641.89;1778560;80;21683;-62
2021/11/19 04:26:44;;;;;;;11.80;10.25;;;;;;;11.34;52.94;99633.44;1760415;80;21097;-61
2021/11/19 04:29:11;;;;;;;11.38;9.93;;;;;;;11.35;52.93;99629.76;1784964;79;21559;-62
2021/11/19 04:31:46;;;;;;;11.50;9.73;;;;;;;11.35;52.94;99627.09;1767351;80;21016;-61
2021/11/19 04:34:12;;;;;;;10.88;9.55;;;;;;;11.34;52.92;99624.12;1766681;80;21157;-62
2021/11/19 04:36:40;;;;;;;11.53;10.13;;;;;;;11.35;52.93;99621.78;1780421;80;21098;-62
2021/11/19 04:39:08;;;;;;;12.03;9.60;;;;;;;11.34;52.91;99621.47;1779164;80;21094;-61
2021/11/19 04:41:38;;;;;;;11.43;9.40;;;;;;;11.33;52.89;99622.46;1766431;80;21509;-61
2021/11/19 04:44:06;;;;;;;12.33;9.90;;;;;;;11.34;52.88;99613.48;1766179;80;21080;-62
2021/11/19 04:46:34;;;;;;;10.63;9.40;;;;;;;11.33;52.91;99618.47;1771852;80;21163;-62
2021/11/19 04:49:01;;;;;;;11.48;10.23;;;;;;;11.34;52.88;99612.16;1775493;80;21093;-62
2021/11/19 04:51:33;;;;;;;10.43;9.30;;;;;;;11.34;52.87;99620.14;1768645;80;21099;-61
2021/11/19 04:54:01;;;;;;;10.82;9.25;;;;;;;11.33;52.87;99620.62;1750689;80;21579;-63
2021/11/19 04:56:27;;;;;;;12.33;10.08;;;;;;;11.34;52.85;99627.61;1727526;81;21544;-62
2021/11/19 04:58:53;;;;;;;10.18;9.08;;;;;;;11.34;52.85;99624.12;1755957;80;21539;-62
2021/11/19 05:01:30;;;;;;;13.22;9.60;;;;;;;11.34;52.85;99622.80;1769662;80;21045;-61
2021/11/19 05:04:02;;;;;;;11.28;9.43;;;;;;;11.34;52.81;99624.12;1719417;80;21070;-61
2021/11/19 05:06:29;;;;;;;10.20;9.13;;;;;;;11.34;52.81;99626.79;1752902;80;21096;-61
2021/11/19 05:08:56;;;;;;;10.53;9.20;;;;;;;11.33;52.82;99622.46;1759447;80;21045;-61
2021/11/19 05:11:29;;;;;;;11.90;10.05;;;;;;;11.32;52.80;99614.98;1772223;79;21218;-61
2021/11/19 05:13:56;;;;;;;10.35;9.25;;;;;;;11.15;52.80;99584.19;1782023;79;21490;-61
2021/11/19 05:16:22;;;;;;;12.07;9.50;;;;;;;11.34;52.80;99610.83;1768918;80;21009;-61
2021/11/19 05:18:49;;;;;;;10.72;9.43;;;;;;;11.33;52.77;99606.50;1768606;80;21066;-63
2021/11/19 05:21:17;;;;;;;11.40;9.45;;;;;;;11.33;52.78;99607.83;1766604;80;21025;-63
2021/11/19 05:23:44;;;;;;;10.82;9.73;;;;;;;11.31;52.76;99618.64;1783489;80;21113;-61
2021/11/19 05:26:10;;;;;;;10.90;9.13;;;;;;;11.32;52.77;99611.00;1773466;80;21095;-62
2021/11/19 05:28:37;;;;;;;10.32;9.03;;;;;;;11.32;52.75;99602.17;1773955;79;21108;-62
2021/11/19 05:31:04;;;;;;;10.63;9.53;;;;;;;11.32;52.75;99607.49;1784538;79;21457;-62
2021/11/19 05:33:32;;;;;;;10.68;9.13;;;;;;;11.32;52.74;99601.69;1776583;79;21050;-62
2021/11/19 05:35:58;;;;;;;10.45;9.00;;;;;;;11.32;52.74;99598.19;1792304;79;21086;-62
2021/11/19 05:38:25;;;;;;;10.35;9.25;;;;;;;11.32;52.72;99599.03;1791991;79;21643;-63
2021/11/19 05:40:52;;;;;;;12.03;9.73;;;;;;;11.32;52.72;99606.16;1793691;79;21521;-62
2021/11/19 05:43:19;;;;;;;10.18;9.13;;;;;;;11.32;52.73;99599.03;1744778;79;21591;-62
2021/11/19 05:46:00;;;;;;;10.30;9.20;;;;;;;11.33;52.71;99601.18;1781244;79;21088;-62
2021/11/19 05:48:48;;;;;;;9.83;8.68;;;;;;;11.33;52.71;99593.20;1765635;79;21985;-62
2021/11/19 05:51:14;;;;;;;11.38;9.53;;;;;;;11.32;52.68;99584.89;1774664;79;21064;-62
2021/11/19 05:53:42;;;;;;;10.60;9.28;;;;;;;11.32;52.71;99583.55;1776044;79;21037;-62
2021/11/19 05:56:11;;;;;;;10.88;9.03;;;;;;;11.32;52.70;99582.23;1778066;79;21093;-62
2021/11/19 05:58:38;;;;;;;11.12;9.98;;;;;;;11.31;52.67;99580.08;1764966;80;21004;-62
2021/11/19 06:01:11;;;;;;;11.05;9.30;;;;;;;11.31;52.66;99584.58;1769088;80;21723;-64
2021/11/19 06:03:40;;;;;;;10.03;8.65;;;;;;;11.31;52.68;99576.59;1777567;80;21511;-64
2021/11/19 06:06:09;;;;;;;9.93;8.30;;;;;;;11.31;52.67;99568.63;1760052;78;20998;-64
2021/11/19 06:08:56;;;;;;;10.72;8.30;;;;;;;11.29;52.67;99567.46;1791896;80;21096;-64
2021/11/19 06:11:39;;;;;;;10.13;9.13;;;;;;;11.29;52.68;99563.98;1763404;80;21081;-64
2021/11/19 06:14:10;;;;;;;10.55;9.55;;;;;;;11.29;52.68;99563.98;1763846;80;21094;-64
2021/11/19 06:16:43;;;;;;;10.08;8.60;;;;;;;11.28;52.68;99557.84;1772308;80;21094;-64
2021/11/19 06:19:13;;;;;;;10.72;9.53;;;;;;;11.28;52.70;99563.64;1773811;79;22179;-64
2021/11/19 06:21:43;;;;;;;11.65;8.48;;;;;;;11.28;52.71;99562.31;1770872;80;21576;-64
2021/11/19 06:24:14;;;;;;;9.00;8.18;;;;;;;11.27;52.71;99550.86;1774783;80;21130;-64
2021/11/19 06:26:43;;;;;;;9.85;8.55;;;;;;;11.28;52.71;99545.88;1762100;80;21111;-65
2021/11/19 06:29:09;;;;;;;9.83;8.63;;;;;;;11.28;52.70;99543.70;1772101;80;21069;-64
2021/11/19 06:31:40;;;;;;;10.88;8.88;;;;;;;11.28;52.69;99537.05;1755909;80;21007;-65
2021/11/19 06:34:06;;;;;;;9.00;8.10;;;;;;;11.29;52.68;99532.07;1737638;80;21259;-65
2021/11/19 06:36:33;;;;;;;9.43;8.33;;;;;;;11.28;52.69;99523.75;1771491;80;21037;-65
2021/11/19 06:39:01;;;;;;;10.03;8.48;;;;;;;11.27;52.64;99516.80;1772422;80;21141;-64
2021/11/19 06:41:28;;;;;;;9.55;8.55;;;;;;;11.28;52.68;99535.24;1789881;80;20998;-64
2021/11/19 06:43:59;;;;;;;10.53;8.65;;;;;;;11.28;52.68;99533.06;1786400;79;21079;-65
2021/11/19 06:46:28;;;;;;;9.68;8.50;;;;;;;11.28;52.66;99511.31;1736799;81;21489;-64
2021/11/19 06:49:13;;;;;;;9.20;7.87;;;;;;;11.28;52.67;99507.31;1771595;80;21051;-64
2021/11/19 06:51:43;;;;;;;9.73;8.73;;;;;;;11.28;52.66;99504.66;1775349;80;21321;-65
2021/11/19 06:54:24;;;;;;;8.75;7.60;;;;;;;11.26;52.66;99504.02;1717205;80;21080;-65
2021/11/19 06:56:59;;;;;;;10.13;8.55;;;;;;;11.27;52.68;99496.85;1756448;80;21042;-65
2021/11/19 06:59:39;;;;;;;10.65;8.98;;;;;;;11.27;52.71;99493.69;1776017;80;21006;-65
2021/11/19 07:02:06;;;;;;;9.45;7.70;;;;;;;11.27;52.68;99489.70;1762253;80;21533;-63
2021/11/19 07:04:33;;;;;;;9.95;7.78;;;;;;;11.27;52.70;99499.00;1764427;80;21199;-64
2021/11/19 07:07:01;;;;;;;8.65;7.75;;;;;;;11.28;52.69;99483.39;1765933;80;21570;-64
2021/11/19 07:09:29;;;;;;;8.50;7.40;;;;;;;11.29;52.70;99482.87;1764594;80;21033;-63
2021/11/19 07:11:59;;;;;;;10.65;8.50;;;;;;;11.29;52.69;99480.22;1760520;80;21032;-63
2021/11/19 07:14:27;;;;;;;9.85;8.85;;;;;;;11.29;52.67;99472.23;1787922;79;21058;-64
2021/11/19 07:16:53;;;;;;;9.33;8.33;;;;;;;11.29;52.68;99473.56;1781589;80;21167;-62
2021/11/19 07:19:22;;;;;;;9.80;8.40;;;;;;;11.29;52.67;99470.91;1752053;80;21970;-65
2021/11/19 07:21:49;;;;;;;9.58;7.80;;;;;;;11.29;52.67;99467.73;1766716;80;21001;-63
2021/11/19 07:24:15;;;;;;;8.78;7.87;;;;;;;11.30;52.66;99465.90;1784815;80;21474;-64
2021/11/19 07:26:42;;;;;;;8.85;7.95;;;;;;;11.30;52.66;99461.42;1756799;80;21042;-65
2021/11/19 07:29:08;;;;;;;10.05;7.50;;;;;;;11.31;52.65;99458.26;1771427;79;21122;-65
2021/11/19 07:31:39;;;;;;;11.22;8.48;;;;;;;11.31;52.65;99456.92;1702926;79;21080;-63
2021/11/19 07:34:10;;;;;;;8.23;7.42;;;;;;;11.31;52.64;99455.09;1765775;79;21080;-66
2021/11/19 07:36:41;;;;;;;10.15;8.23;;;;;;;11.32;52.65;99448.78;1774483;79;21053;-64
2021/11/19 07:39:10;;;;;;;9.05;8.10;;;;;;;11.33;52.64;99454.91;1782749;79;21489;-63
2021/11/19 07:41:39;;;;;;;9.18;7.80;;;;;;;11.33;52.64;99460.23;1763614;80;21116;-63
2021/11/19 07:44:10;;;;;;;8.98;8.08;;;;;;;11.33;52.64;99454.40;1747966;79;21092;-64
2021/11/19 07:46:51;;;;;;;9.58;7.80;;;;;;;11.33;52.65;99452.25;1754810;80;21572;-64
2021/11/19 07:49:18;;;;;;;9.58;7.62;;;;;;;11.33;52.63;99445.09;1767536;79;21041;-64
2021/11/19 07:51:48;;;;;;;7.72;6.92;;;;;;;11.34;52.65;99443.28;1769508;80;21112;-63
2021/11/19 07:54:15;;;;;;;11.22;8.08;;;;;;;11.33;52.64;99442.44;1772424;79;21067;-64
2021/11/19 07:56:41;;;;;;;8.45;7.55;;;;;;;11.35;52.64;99452.89;1770268;79;21005;-64
2021/11/19 07:59:28;;;;;;;8.75;7.53;;;;;;;11.34;52.63;99445.43;1767590;80;21123;-64
2021/11/19 08:01:59;;;;;;;8.75;7.40;;;;;;;11.34;52.63;99442.77;1769826;79;21553;-64
2021/11/19 08:04:27;;;;;;;9.03;8.13;;;;;;;11.34;52.64;99428.14;1769398;80;21092;-64
2021/11/19 08:06:54;;;;;;;8.98;7.78;;;;;;;11.34;52.65;99431.31;1772219;79;21167;-64
2021/11/19 08:09:29;;;;;;;8.88;7.30;;;;;;;11.35;52.65;99427.13;1712385;81;21057;-66
2021/11/19 08:11:57;;;;;;;10.78;8.63;;;;;;;11.35;52.65;99422.31;1769666;81;21092;-65
2021/11/19 08:14:24;;;;;;;9.10;8.20;;;;;;;11.34;52.66;99425.48;1770485;79;21072;-64
2021/11/19 08:16:56;;;;;;;8.35;7.47;;;;;;;11.35;52.65;99423.64;1769873;81;21080;-65
2021/11/19 08:19:43;;;;;;;10.80;8.35;;;;;;;11.35;52.67;99413.82;1775035;79;21081;-64
2021/11/19 08:22:07;;;;;;;9.13;8.18;;;;;;;11.36;52.67;99421.32;1745072;81;21055;-63
2021/11/19 08:24:34;;;;;;;8.95;7.97;;;;;;;11.36;52.67;99416.82;1770599;79;21047;-64
2021/11/19 08:27:09;;;;;;;8.63;7.35;;;;;;;11.36;52.68;99409.36;1766751;81;21032;-63
2021/11/19 08:29:36;;;;;;;9.23;6.95;;;;;;;11.37;52.67;99408.33;1765280;81;21084;-61
2021/11/19 08:32:04;;;;;;;10.63;7.75;;;;;;;11.37;52.67;99391.86;1771959;79;21820;-63
2021/11/19 08:34:31;;;;;;;8.43;7.47;;;;;;;11.38;52.68;99384.73;1772276;79;20997;-65
2021/11/19 08:37:00;;;;;;;10.35;8.33;;;;;;;11.38;52.69;99386.06;1767557;80;21048;-64
2021/11/19 08:39:26;;;;;;;9.90;7.72;;;;;;;11.38;52.68;99380.23;1770013;81;21557;-64
2021/11/19 08:41:53;;;;;;;10.75;8.60;;;;;;;11.39;52.67;99383.20;1769993;79;21044;-66
2021/11/19 08:44:21;;;;;;;10.60;8.73;;;;;;;11.41;52.68;99381.69;1771304;79;21064;-63
2021/11/19 08:46:49;;;;;;;9.88;8.65;;;;;;;11.41;52.65;99364.40;1768125;80;21636;-64
2021/11/19 08:49:31;;;;;;;9.00;7.40;;;;;;;11.43;52.64;99365.04;1769528;81;21064;-65
2021/11/19 08:51:57;;;;;;;8.65;7.10;;;;;;;11.43;52.65;99357.58;1765954;79;21032;-64
2021/11/19 08:54:23;;;;;;;8.65;7.67;;;;;;;11.43;52.67;99350.92;1769519;81;21047;-66
2021/11/19 08:56:55;;;;;;;8.55;7.58;;;;;;;11.43;52.66;99353.59;1772271;79;21116;-65
2021/11/19 08:59:22;;;;;;;8.90;8.00;;;;;;;11.44;52.69;99345.94;1769045;80;21033;-64
2021/11/19 09:01:51;;;;;;;9.70;8.55;;;;;;;11.44;52.69;99336.12;1769419;79;21048;-64
2021/11/19 09:04:18;;;;;;;10.28;8.28;;;;;;;11.44;52.65;99329.98;1767340;79;21044;-64
2021/11/19 09:06:45;;;;;;;8.75;7.60;;;;;;;11.44;52.67;99334.79;1769638;80;21596;-64
2021/11/19 09:09:12;;;;;;;9.43;8.40;;;;;;;11.45;52.67;99324.97;1769123;80;21065;-64
2021/11/19 09:11:39;;;;;;;8.30;7.40;;;;;;;11.44;52.69;99320.16;1766094;79;21104;-65
2021/11/19 09:14:06;;;;;;;9.25;7.97;;;;;;;11.45;52.68;99318.31;1781843;79;21017;-64
2021/11/19 09:16:37;;;;;;;10.60;8.68;;;;;;;11.46;52.67;99307.50;1761801;80;21009;-65
2021/11/19 09:19:19;;;;;;;9.45;8.45;;;;;;;11.47;52.69;99305.66;1746846;79;21040;-64
2021/11/19 09:21:51;;;;;;;9.33;8.33;;;;;;;11.47;52.68;99301.16;1780856;79;21209;-64
2021/11/19 09:24:21;;;;;;;9.35;7.62;;;;;;;11.47;52.67;99301.16;1772215;79;21057;-62
2021/11/19 09:26:59;;;;;;;10.70;8.30;;;;;;;11.48;52.70;99296.69;1767435;80;21091;-64
2021/11/19 09:29:33;;;;;;;9.95;7.90;;;;;;;11.47;52.71;99291.84;1765455;79;21012;-65
2021/11/19 09:32:01;;;;;;;9.38;8.18;;;;;;;11.47;52.71;99285.70;1750480;79;21083;-64
2021/11/19 09:34:28;;;;;;;11.43;8.08;;;;;;;11.47;52.71;99285.20;1769831;81;21144;-64
2021/11/19 09:36:55;;;;;;;8.95;7.60;;;;;;;11.48;52.74;99281.54;1761485;79;21129;-63
2021/11/19 09:39:28;;;;;;;9.28;8.20;;;;;;;11.49;52.74;99275.70;1755156;81;21067;-64
2021/11/19 09:42:12;;;;;;;9.25;7.55;;;;;;;11.50;52.74;99273.38;1767922;81;21040;-65
2021/11/19 09:45:31;;;;;;;8.68;7.37;;;;;;;11.50;52.72;99264.89;1763106;81;20974;-63
2021/11/19 09:48:23;;;;;;;7.97;6.80;;;;;;;11.52;52.71;99263.38;1760038;80;21154;-65
2021/11/19 09:51:17;;;;;;;8.20;7.33;;;;;;;11.51;52.73;99256.39;1768177;81;21082;-64
2021/11/19 09:54:16;;;;;;;8.33;7.47;;;;;;;11.50;52.76;99246.78;1765630;79;21568;-63
2021/11/19 09:57:15;;;;;;;8.90;7.70;;;;;;;11.50;52.78;99238.80;1761359;81;21044;-65
2021/11/19 10:00:22;;;;;;;9.20;7.72;;;;;;;11.50;52.79;99238.80;1770150;79;21073;-63
2021/11/19 10:03:24;;;;;;;9.15;7.90;;;;;;;11.49;52.81;99219.84;1760465;81;21147;-64
2021/11/19 10:06:02;;;;;;;8.80;7.45;;;;;;;11.49;52.84;99223.36;1767776;79;21112;-64
2021/11/19 10:08:57;;;;;;;9.43;7.35;;;;;;;11.48;52.89;99207.58;1737041;79;21016;-64
2021/11/19 10:11:48;;;;;;;9.15;7.87;;;;;;;11.49;52.88;99205.22;1766975;81;21064;-65
2021/11/19 10:14:36;;;;;;;8.20;7.12;;;;;;;11.49;53.25;99199.41;1757019;79;21070;-66
2021/11/19 10:17:14;;;;;;;8.13;7.05;;;;;;;11.50;53.37;99190.41;1769274;81;21142;-65
2021/11/19 10:19:54;;;;;;;7.65;6.85;;;;;;;11.51;53.42;99192.55;1771535;79;21048;-64
2021/11/19 10:22:51;;;;;;;8.33;7.40;;;;;;;11.50;53.43;99187.75;1761929;79;21088;-64
2021/11/19 10:29:44;;;;;;;9.38;6.62;;;;;;;11.52;53.43;99185.72;1760516;81;21048;-66
2021/11/19 10:32:16;;;;;;;8.18;6.75;;;;;;;11.51;53.42;99181.43;1774888;79;26057;-67
2021/11/19 10:35:10;;;;;;;7.58;6.55;;;;;;;11.50;53.43;99171.78;1777832;79;21033;-64
2021/11/19 10:37:58;;;;;;;8.28;6.92;;;;;;;11.52;53.40;99162.30;1765456;79;21061;-64
2021/11/19 10:41:19;;;;;;;7.30;6.45;;;;;;;11.52;53.39;99168.44;1767326;79;21035;-64
2021/11/19 10:44:33;;;;;;;8.73;7.28;;;;;;;11.54;53.36;99154.95;1765197;79;21007;-63
2021/11/19 10:47:38;;;;;;;8.33;7.25;;;;;;;11.55;53.34;99152.59;1743734;80;21155;-64
2021/11/19 10:51:00;;;;;;;8.75;7.40;;;;;;;11.55;53.33;99145.45;1770386;79;21531;-65
2021/11/19 10:53:59;;;;;;;8.33;6.65;;;;;;;11.56;53.31;99140.44;1764428;79;21039;-65
2021/11/19 10:56:58;;;;;;;8.50;6.70;;;;;;;11.56;53.31;99131.13;1783653;79;21006;-64
2021/11/19 10:59:39;;;;;;;8.13;6.62;;;;;;;11.57;53.26;99126.63;1779277;79;21037;-65
2021/11/19 11:02:13;;;;;;;7.95;6.67;;;;;;;11.58;53.26;99129.61;1776775;79;21557;-64
2021/11/19 11:04:54;;;;;;;7.72;6.90;;;;;;;11.60;53.25;99127.59;1779281;79;21586;-64
2021/11/19 11:07:40;;;;;;;8.88;7.10;;;;;;;11.61;53.22;99130.06;1765535;79;21095;-64
2021/11/19 11:10:17;;;;;;;7.33;6.60;;;;;;;11.63;53.20;99121.05;1774490;79;21094;-64
2021/11/19 11:12:48;;;;;;;8.23;6.67;;;;;;;11.65;53.16;99121.69;1788447;79;21021;-66
2021/11/19 11:15:32;;;;;;;7.75;5.95;;;;;;;11.66;53.14;99118.02;1778096;79;21147;-63
2021/11/19 11:18:17;;;;;;;7.25;6.20;;;;;;;11.66;53.11;99112.70;1736867;80;21550;-62
2021/11/19 11:20:58;;;;;;;9.55;6.72;;;;;;;11.67;53.10;99108.53;1795305;78;21458;-63
2021/11/19 11:23:46;;;;;;;7.53;6.28;;;;;;;11.68;53.08;99106.68;1787036;78;21530;-65
2021/11/19 11:26:20;;;;;;;8.48;6.65;;;;;;;11.68;53.04;99100.03;1811126;78;21252;-65
2021/11/19 11:28:54;;;;;;;7.40;6.25;;;;;;;11.66;53.04;99106.05;1802139;78;21236;-65
2021/11/19 11:32:04;;;;;;;6.97;6.28;;;;;;;11.69;53.04;99107.83;1778069;78;21185;-64
2021/11/19 11:34:42;;;;;;;8.60;6.37;;;;;;;11.70;53.01;99105.98;1789485;79;21009;-65
2021/11/19 11:37:41;;;;;;;7.08;6.25;;;;;;;11.70;53.00;99109.97;1782518;79;21065;-65
2021/11/19 11:40:29;;;;;;;6.97;5.90;;;;;;;11.71;52.99;99106.31;1786380;79;21096;-66
2021/11/19 11:43:33;;;;;;;7.08;6.05;;;;;;;11.71;52.98;99115.11;1800957;78;21130;-65
2021/11/19 11:46:20;;;;;;;7.22;6.37;;;;;;;11.71;52.98;99100.48;1778562;79;21032;-65
2021/11/19 11:49:25;;;;;;;7.22;6.25;;;;;;;11.73;52.97;99102.95;1778251;79;21057;-65
2021/11/19 11:52:26;;;;;;;7.35;6.08;;;;;;;11.73;52.97;99098.96;1771865;79;21069;-65
2021/11/19 11:55:10;;;;;;;7.97;6.33;;;;;;;11.73;52.98;99096.30;1775013;79;21998;-64
2021/11/19 11:57:56;;;;;;;6.75;5.90;;;;;;;11.72;52.99;99092.80;1769456;79;21158;-64
2021/11/19 12:00:34;;;;;;;7.08;5.97;;;;;;;11.72;52.98;99093.31;1757585;79;21540;-65
2021/11/19 12:03:39;;;;;;;6.80;6.10;;;;;;;11.73;53.00;99090.98;1775491;79;21018;-66